METAR AND TAF INFORMATION
METAR FOR EBBL
ADDS - METARS form results

(0551 UTC 24 April 2019)
Data provider http://aviationweather.gov/metar/data/
 
METAR text: EBBL 240525Z VRB02KT 9999 BKN090 BKN140 14/09 Q0998 BLU BLU
Conditions at: EBBL (KLEINE-BROGEL(BA, BE) observed 0525 UTC 24 April 2019
Temperature: 14.0°C (57°F)
Dewpoint: 9.0°C (48°F) [RH = 72%]
Pressure (altimeter): 29.47 inches Hg (998.0 mb)
Winds: variable direction winds at 2 MPH (2 knots; 1.0 m/s)
Visibility: 6 or more miles (10+ km)
Ceiling: 9000 feet AGL
Clouds: broken clouds at 9000 feet AGL
broken clouds at 14000 feet AGL
Weather: no significant weather observed at this time

METAR text: EBBL 240522Z VRB02KT 9999 BKN090 BKN140 14/09 Q0998 BLU BLU
Conditions at: EBBL (KLEINE-BROGEL(BA, BE) observed 0522 UTC 24 April 2019
Temperature: 14.0°C (57°F)
Dewpoint: 9.0°C (48°F) [RH = 72%]
Pressure (altimeter): 29.47 inches Hg (998.0 mb)
Winds: variable direction winds at 2 MPH (2 knots; 1.0 m/s)
Visibility: 6 or more miles (10+ km)
Ceiling: 9000 feet AGL
Clouds: broken clouds at 9000 feet AGL
broken clouds at 14000 feet AGL
Weather: no significant weather observed at this time

METAR text: EBBL 240455Z AUTO VRB02KT 9999 OVC091/// 14/09 Q0998 BLU
Conditions at: EBBL (KLEINE-BROGEL(BA, BE) observed 0455 UTC 24 April 2019
Temperature: 14.0°C (57°F)
Dewpoint: 9.0°C (48°F) [RH = 72%]
Pressure (altimeter): 29.47 inches Hg (998.0 mb)
Winds: variable direction winds at 2 MPH (2 knots; 1.0 m/s)
Visibility: 6 or more miles (10+ km)
Ceiling: 9100 feet AGL
Clouds: overcast cloud deck at 9100 feet AGL
Weather: no significant weather observed at this time

Forecast for: EBBL (KLEINE-BROGEL(BA, BE)
Text: TAF EBBL 240541Z 2407/2416 VRB03KT 9999 BKN100
Forecast period: 0700 to 0900 UTC 24 April 2019
Forecast type: FROM: standard forecast or significant change
Winds: variable direction winds at 3 MPH (3 knots; 1.5 m/s)
Visibility: 6 or more miles 10+ km)
Ceiling: 10000 feet AGL
Clouds: broken clouds at 10000 feet AGL
Weather: no significant weather forecast for this period
Text: BECMG 2409/2411 19012KT FEW040 SCT300
Forecast period: 0900 to 1600 UTC 24 April 2019
Forecast type: BECOMING: Conditions expected to become as follows by 1100 UTC 24 April 2019
Winds: from the S (190 degrees) at 14 MPH (12 knots; 6.2 m/s)
Visibility: 6 or more miles 10+ km)
Ceiling: at least 12,000 feet AGL
Clouds: few clouds at 4000 feet AGL
scattered clouds at 30000 feet AGL
Weather: no significant weather forecast for this period
Text: TEMPO 2414/2416 19012G22KT 6000 -SHRA SCT025TCU
Forecast period: 1400 to 1600 UTC 24 April 2019
Forecast type: TEMPORARY: The following changes expected for less than half the time period
Winds: from the S (190 degrees) at 14 MPH (12 knots; 6.2 m/s)
gusting to 25 MPH (22 knots; 11.3 m/s)
Visibility: 4 miles (6 km)
Ceiling: at least 12,000 feet AGL
Clouds: scattered clouds at 2500 feet AGL
Weather: -SHRA  (light rain showers)

 AIRPORT MAP

 RUNWAY INFORMATION
Runway 05L Runway length 10158 ft Runway width 148 ft
Runway elevation 193 ft Runway displaced threshold 1085 ft Runway heading 50
Runway 23R Runway length 10158 ft Runway width 148 ft
Runway elevation 169 ft Runway displaced threshold 1128 ft Runway heading 230
Runway 05R Runway length 7874 ft Runway width 75 ft
Runway elevation 0 ft Runway displaced threshold 0 ft Runway heading 50
Runway 23L Runway length 7874 ft Runway width 75 ft
Runway elevation 0 ft Runway displaced threshold 24 ft Runway heading 230

 AIRPORT FREQUENCIES
Type APP Name APP Frequency 122.5 MHZ
Type GND Name TAXI Frequency 122.1 MHZ
Type TWR Name TWR Frequency 122.1 MHZ

 AIRPORT NEAR NAVIGATION AIDS
Type TACAN Name Kleine Brogel Frequency 109600 KHZ
Type NDB Name Kleine Brogel Frequency 431 KHZ